Beaufort, North Carolina
Current Conditions -  °F | °C
As of 12:58 AM on Friday 31 Oct 2014 (Local Time) from KMRH Reporting Station
Overcast Overcast  
Wind Chill: 56°   Ceiling: 5500
Heat Index: 56°   Visibility: 10mi
Dew Point: 51°   Wind: 8mph
Humidity: 84%   Direction: 20°NNE
Pressure: 29.94"   Gusts: NA
Location:  34.72°N, 76.66°W
Report Text: KMRH 310458Z AUTO 02007KT 10SM OVC055 13/11 A2994 RMK AO2 SLP138 T01330106 402170117 TSNO
Loading
Personal Weather Stations






























Interactive Weather Map
Tropical Storm Tracking
New forecast layout! Learn more

10-Day Weather Forecast

Advertisements
Track Severe Weather on mobile